^^
Datos históricos de la estación: Murcia-Puente Tocinos
Diario Informe para Noviembre 5, 2019 Unidades:  Ambas    Ingés   Métrico
Diario Semanal Mensual Anual
  Máxima: Mínima: Promedio:
Temperatura: 69.1 °F /  20.6 °C 58.1 °F /  14.5 °C 65.5 °F /  18.6 °C
Punto de rocio: 52.7 °F /  11.5 °C 38.1 °F /  3.4 °C 43.5 °F /  6.4 °C
Humedad: 67.6% 32.9% 46%
Velocidad viento: 15.2mph /  24.5km/h - 9mph /  14.5km/h
Racha viento: 30mph /  48.3km/h - -
Viento- - OSO
Presión: 29.9 in /  1013.0 hPa 29.7 in /  1005.4 hPa -
Precipitación: 0.01 in /  0.3 mm    
 
 
Tabla de datos para Noviembre 5, 2019
Hora Temperatura Punto de rocio Presión Viento Velocidad viento Racha viento Humedad Intensidad lluvia(por hora) Nubes
00:04 68.7 °F /  20.4 °C 46.4 °F /  8 °C 29.7in /  1007.0hPa SSO 8.3mph /  13.4km/h 17mph /  27.4km/h 45% 0in /  0.0mm
00:09 68.5 °F /  20.3 °C 46.2 °F /  7.9 °C 29.7in /  1007.0hPa SSO 8.5mph /  13.7km/h 15mph /  24.1km/h 45% 0in /  0.0mm
00:14 68.4 °F /  20.2 °C 46.4 °F /  8 °C 29.7in /  1006.8hPa SSO 7.8mph /  12.5km/h 15.6mph /  25.1km/h 45.3% 0in /  0.0mm
00:19 68.4 °F /  20.2 °C 46.6 °F /  8.1 °C 29.7in /  1006.8hPa SSO 7.6mph /  12.2km/h 16.1mph /  25.9km/h 46% 0in /  0.0mm
00:24 68 °F /  20 °C 46.4 °F /  8 °C 29.7in /  1006.8hPa SSO 8.3mph /  13.4km/h 14mph /  22.5km/h 46% 0in /  0.0mm
00:29 67.8 °F /  19.9 °C 46.8 °F /  8.2 °C 29.7in /  1006.8hPa SSO 8.5mph /  13.7km/h 16.1mph /  25.9km/h 47% 0in /  0.0mm
00:34 67.8 °F /  19.9 °C 46.8 °F /  8.2 °C 29.7in /  1006.8hPa SSO 8.1mph /  13.1km/h 16mph /  25.7km/h 47.1% 0in /  0.0mm
00:39 67.8 °F /  19.9 °C 47.3 °F /  8.5 °C 29.7in /  1007.0hPa SO 8.1mph /  13km/h 13mph /  20.9km/h 48% 0in /  0.0mm
00:44 67.6 °F /  19.8 °C 47.3 °F /  8.5 °C 29.7in /  1007.0hPa SO 7.1mph /  11.5km/h 13mph /  20.9km/h 48.2% 0in /  0.0mm
00:49 67.3 °F /  19.6 °C 47.5 °F /  8.6 °C 29.7in /  1007.0hPa SSO 6.9mph /  11.1km/h 12.7mph /  20.4km/h 49% 0in /  0.0mm
00:54 67.3 °F /  19.6 °C 47.5 °F /  8.6 °C 29.7in /  1007.0hPa SSO 6.9mph /  11.1km/h 13mph /  20.9km/h 49% 0in /  0.0mm
00:59 67.3 °F /  19.6 °C 47.5 °F /  8.6 °C 29.7in /  1006.9hPa SSO 6.9mph /  11.1km/h 12mph /  19.3km/h 49% 0in /  0.0mm
01:04 67.5 °F /  19.7 °C 47.5 °F /  8.6 °C 29.7in /  1006.9hPa SSO 6.9mph /  11.1km/h 11.8mph /  19km/h 49% 0in /  0.0mm
01:09 67.5 °F /  19.7 °C 47.7 °F /  8.7 °C 29.7in /  1006.9hPa SSO 6.9mph /  11.1km/h 12mph /  19.3km/h 49% 0in /  0.0mm
01:14 67.5 °F /  19.7 °C 47.5 °F /  8.6 °C 29.7in /  1006.7hPa SSO 6.9mph /  11.1km/h 14mph /  22.5km/h 48.8% 0in /  0.0mm
01:19 67.6 °F /  19.8 °C 47.3 °F /  8.5 °C 29.7in /  1006.7hPa SSO 6.9mph /  11.1km/h 14mph /  22.5km/h 48% 0in /  0.0mm
01:24 67.6 °F /  19.8 °C 47.3 °F /  8.5 °C 29.7in /  1006.7hPa SSO 6.9mph /  11.1km/h 10.4mph /  16.7km/h 48.2% 0in /  0.0mm
01:29 67.5 °F /  19.7 °C 47.5 °F /  8.6 °C 29.7in /  1006.6hPa SSO 6.9mph /  11.1km/h 10mph /  16.1km/h 48.6% 0in /  0.0mm
01:34 67.6 °F /  19.8 °C 47.1 °F /  8.4 °C 29.7in /  1006.6hPa SSO 6.1mph /  9.8km/h 11.5mph /  18.5km/h 48% 0in /  0.0mm
01:39 67.8 °F /  19.9 °C 47.3 °F /  8.5 °C 29.7in /  1006.6hPa SSO 5.9mph /  9.5km/h 12mph /  19.3km/h 48% 0in /  0.0mm
01:44 67.8 °F /  19.9 °C 47.5 °F /  8.6 °C 29.7in /  1006.5hPa Sur 6.7mph /  10.8km/h 13.8mph /  22.2km/h 48% 0in /  0.0mm
01:49 67.6 °F /  19.8 °C 47.3 °F /  8.5 °C 29.7in /  1006.5hPa SSO 6.9mph /  11.1km/h 14mph /  22.5km/h 48% 0in /  0.0mm
01:54 67.5 °F /  19.7 °C 47.7 °F /  8.7 °C 29.7in /  1006.5hPa SSO 6.3mph /  10.2km/h 11mph /  17.7km/h 48.8% 0in /  0.0mm
01:59 67.5 °F /  19.7 °C 47.7 °F /  8.7 °C 29.7in /  1006.2hPa SSO 6.2mph /  10km/h 9mph /  14.5km/h 49% 0in /  0.0mm
02:04 67.3 °F /  19.6 °C 47.5 °F /  8.6 °C 29.7in /  1006.2hPa SSO 4.7mph /  7.5km/h 6.9mph /  11.1km/h 49.1% 0in /  0.0mm
02:09 66.9 °F /  19.4 °C 47.7 °F /  8.7 °C 29.7in /  1006.2hPa SSO 4.3mph /  6.9km/h 10.4mph /  16.7km/h 50% 0in /  0.0mm
02:14 66.9 °F /  19.4 °C 47.7 °F /  8.7 °C 29.7in /  1006.1hPa SSO 4.7mph /  7.5km/h 12.7mph /  20.4km/h 50% 0in /  0.0mm
02:19 66.7 °F /  19.3 °C 47.5 °F /  8.6 °C 29.7in /  1006.1hPa SSO 4.7mph /  7.6km/h 13.8mph /  22.2km/h 50% 0in /  0.0mm
02:24 66.7 °F /  19.3 °C 47.7 °F /  8.7 °C 29.7in /  1006.1hPa SSO 6.8mph /  11km/h 14mph /  22.5km/h 50.2% 0in /  0.0mm
02:29 66.6 °F /  19.2 °C 47.8 °F /  8.8 °C 29.7in /  1005.8hPa SSO 7.4mph /  11.9km/h 13mph /  20.9km/h 51% 0in /  0.0mm
02:34 66.6 °F /  19.2 °C 47.8 °F /  8.8 °C 29.7in /  1005.8hPa SSO 7.6mph /  12.2km/h 15mph /  24.1km/h 51% 0in /  0.0mm
02:39 66.6 °F /  19.2 °C 47.8 °F /  8.8 °C 29.7in /  1005.8hPa SSO 7.6mph /  12.2km/h 15mph /  24.1km/h 51% 0in /  0.0mm
02:44 66.6 °F /  19.2 °C 47.8 °F /  8.8 °C 29.7in /  1005.6hPa SSO 8.9mph /  14.3km/h 15mph /  24.1km/h 51% 0in /  0.0mm
02:49 66.4 °F /  19.1 °C 47.7 °F /  8.7 °C 29.7in /  1005.6hPa SSO 9.2mph /  14.8km/h 16.1mph /  25.9km/h 51% 0in /  0.0mm
02:54 66.6 °F /  19.2 °C 47.7 °F /  8.7 °C 29.7in /  1005.6hPa SSO 8.8mph /  14.2km/h 16mph /  25.7km/h 50.7% 0in /  0.0mm
02:59 66.7 °F /  19.3 °C 47.7 °F /  8.7 °C 29.7in /  1005.4hPa SSO 8.7mph /  14km/h 16.1mph /  25.9km/h 50% 0in /  0.0mm
03:04 67.1 °F /  19.5 °C 47.5 °F /  8.6 °C 29.7in /  1005.4hPa SSO 9.5mph /  15.3km/h 16.1mph /  25.9km/h 49.5% 0in /  0.0mm
03:09 67.5 °F /  19.7 °C 47.5 °F /  8.6 °C 29.7in /  1005.4hPa SSO 9.7mph /  15.6km/h 16.1mph /  25.9km/h 48.6% 0in /  0.0mm
03:14 67.8 °F /  19.9 °C 47.5 °F /  8.6 °C 29.7in /  1005.4hPa SO 9.3mph /  15km/h 16.8mph /  27km/h 48% 0in /  0.0mm
03:19 67.8 °F /  19.9 °C 47.5 °F /  8.6 °C 29.7in /  1005.4hPa SO 9.2mph /  14.8km/h 17.3mph /  27.8km/h 48% 0in /  0.0mm
03:24 67.8 °F /  19.9 °C 47.3 °F /  8.5 °C 29.7in /  1005.5hPa SO 8.3mph /  13.4km/h 15.6mph /  25.1km/h 48% 0in /  0.0mm
03:29 67.8 °F /  19.9 °C 47.5 °F /  8.6 °C 29.7in /  1005.5hPa SO 8.1mph /  13km/h 16.1mph /  25.9km/h 48% 0in /  0.0mm
03:34 67.8 °F /  19.9 °C 47.5 °F /  8.6 °C 29.7in /  1005.5hPa OSO 8.4mph /  13.5km/h 16mph /  25.7km/h 48% 0in /  0.0mm
03:39 67.8 °F /  19.9 °C 47.5 °F /  8.6 °C 29.7in /  1005.6hPa OSO 8.5mph /  13.7km/h 15mph /  24.1km/h 48% 0in /  0.0mm
03:44 67.6 °F /  19.8 °C 47.5 °F /  8.6 °C 29.7in /  1005.6hPa OSO 8.6mph /  13.9km/h 15mph /  24.1km/h 48.7% 0in /  0.0mm
03:49 67.5 °F /  19.7 °C 47.7 °F /  8.7 °C 29.7in /  1005.6hPa OSO 8.7mph /  14km/h 15mph /  24.1km/h 49% 0in /  0.0mm
03:54 67.5 °F /  19.7 °C 47.7 °F /  8.7 °C 29.7in /  1005.8hPa OSO 8.5mph /  13.7km/h 16.1mph /  25.9km/h 49% 0in /  0.0mm
03:59 67.5 °F /  19.7 °C 47.7 °F /  8.7 °C 29.7in /  1005.8hPa Oeste 8.5mph /  13.7km/h 20.7mph /  33.3km/h 49% 0in /  0.0mm
04:04 67.3 °F /  19.6 °C 48.4 °F /  9.1 °C 29.7in /  1005.8hPa ONO 10.3mph /  16.6km/h 21mph /  33.8km/h 50.8% 0in /  0.0mm
04:09 66.7 °F /  19.3 °C 49.1 °F /  9.5 °C 29.7in /  1006.2hPa ONO 10.7mph /  17.2km/h 22.3mph /  35.9km/h 53.2% 0in /  0.0mm
04:14 66.2 °F /  19 °C 49.3 °F /  9.6 °C 29.7in /  1006.2hPa ONO 11.6mph /  18.6km/h 22mph /  35.4km/h 54.5% 0in /  0.0mm
04:19 65.8 °F /  18.8 °C 49.8 °F /  9.9 °C 29.7in /  1006.2hPa ONO 11.8mph /  19km/h 21.9mph /  35.2km/h 56.2% 0in /  0.0mm
04:24 65.7 °F /  18.7 °C 50.4 °F /  10.2 °C 29.7in /  1006.3hPa ONO 12.2mph /  19.6km/h 22mph /  35.4km/h 57.5% 0in /  0.0mm
04:29 65.5 °F /  18.6 °C 51.1 °F /  10.6 °C 29.7in /  1006.3hPa ONO 12.3mph /  19.8km/h 18.4mph /  29.6km/h 59.8% 0in /  0.0mm
04:34 65.3 °F /  18.5 °C 51.6 °F /  10.9 °C 29.7in /  1006.3hPa ONO 10.3mph /  16.5km/h 21.5mph /  34.6km/h 61.4% 0in /  0.0mm
04:39 64.9 °F /  18.3 °C 52 °F /  11.1 °C 29.7in /  1006.3hPa ONO 9.7mph /  15.6km/h 22mph /  35.4km/h 62.8% 0in /  0.0mm
04:44 64.9 °F /  18.3 °C 52 °F /  11.1 °C 29.7in /  1006.3hPa ONO 10.9mph /  17.5km/h 22mph /  35.4km/h 63% 0in /  0.0mm
04:49 64.8 °F /  18.2 °C 52.2 °F /  11.2 °C 29.7in /  1006.3hPa ONO 11.2mph /  18km/h 24.2mph /  38.9km/h 63.5% 0in /  0.0mm
04:54 64.6 °F /  18.1 °C 52.5 °F /  11.4 °C 29.7in /  1006.4hPa ONO 11.7mph /  18.8km/h 24.8mph /  39.9km/h 65% 0in /  0.0mm
04:59 64 °F /  17.8 °C 52.7 °F /  11.5 °C 29.7in /  1006.4hPa ONO 11.8mph /  19km/h 25.3mph /  40.7km/h 66.8% 0in /  0.0mm
05:04 63.7 °F /  17.6 °C 52.5 °F /  11.4 °C 29.7in /  1006.4hPa ONO 12.4mph /  19.9km/h 20mph /  32.2km/h 67% 0in /  0.0mm
05:09 63.5 °F /  17.5 °C 52.3 °F /  11.3 °C 29.7in /  1006.6hPa ONO 12.5mph /  20.1km/h 18.4mph /  29.6km/h 67% 0in /  0.0mm
05:14 63.3 °F /  17.4 °C 52 °F /  11.1 °C 29.7in /  1006.6hPa ONO 10.7mph /  17.2km/h 18mph /  29km/h 66.4% 0in /  0.0mm
05:19 63.3 °F /  17.4 °C 51.6 °F /  10.9 °C 29.7in /  1006.6hPa ONO 10.2mph /  16.4km/h 17.3mph /  27.8km/h 65.7% 0in /  0.0mm
05:24 63.3 °F /  17.4 °C 51.1 °F /  10.6 °C 29.7in /  1007.0hPa ONO 10.1mph /  16.2km/h 18.4mph /  29.6km/h 64.3% 0in /  0.0mm
05:29 63.3 °F /  17.4 °C 50.4 °F /  10.2 °C 29.7in /  1007.0hPa ONO 10mph /  16.1km/h 20.7mph /  33.3km/h 62.5% 0in /  0.0mm
05:34 63.3 °F /  17.4 °C 50.2 °F /  10.1 °C 29.7in /  1007.0hPa ONO 10.9mph /  17.6km/h 21mph /  33.8km/h 62% 0in /  0.0mm
05:39 63.1 °F /  17.3 °C 49.6 °F /  9.8 °C 29.7in /  1007.2hPa ONO 11.2mph /  18km/h 21.3mph /  34.3km/h 61.2% 0in /  0.0mm
05:44 63.1 °F /  17.3 °C 49.5 °F /  9.7 °C 29.7in /  1007.2hPa ONO 11.4mph /  18.3km/h 21mph /  33.8km/h 61% 0in /  0.0mm
05:49 63.1 °F /  17.3 °C 49.5 °F /  9.7 °C 29.7in /  1007.2hPa ONO 11.4mph /  18.4km/h 19mph /  30.6km/h 61% 0in /  0.0mm
05:54 63.1 °F /  17.3 °C 49.5 °F /  9.7 °C 29.8in /  1007.5hPa ONO 10.4mph /  16.8km/h 17.3mph /  27.8km/h 61% 0in /  0.0mm
05:59 63.1 °F /  17.3 °C 49.5 °F /  9.7 °C 29.8in /  1007.5hPa ONO 10.2mph /  16.4km/h 17mph /  27.4km/h 61% 0in /  0.0mm
06:04 63.1 °F /  17.3 °C 49.5 °F /  9.7 °C 29.8in /  1007.5hPa Oeste 9.8mph /  15.7km/h 15mph /  24.1km/h 61% 0in /  0.0mm
06:09 63.1 °F /  17.3 °C 49.5 °F /  9.7 °C 29.8in /  1007.9hPa Oeste 9.7mph /  15.6km/h 14.7mph /  23.7km/h 61% 0in /  0.0mm
06:14 63.1 °F /  17.3 °C 50 °F /  10 °C 29.8in /  1007.9hPa Oeste 8.9mph /  14.3km/h 16.3mph /  26.2km/h 62.2% 0in /  0.0mm
06:19 63 °F /  17.2 °C 50.5 °F /  10.3 °C 29.8in /  1007.9hPa OSO 8.7mph /  14km/h 16mph /  25.7km/h 64.1% 0in /  0.0mm
06:24 62.4 °F /  16.9 °C 51.1 °F /  10.6 °C 29.8in /  1008.2hPa OSO 6.9mph /  11.1km/h 11mph /  17.7km/h 66.2% 0in /  0.0mm
06:29 62.2 °F /  16.8 °C 51.3 °F /  10.7 °C 29.8in /  1008.2hPa SO 6.4mph /  10.3km/h 10mph /  16.1km/h 67.3% 0in /  0.0mm
06:34 62.2 °F /  16.8 °C 51.3 °F /  10.7 °C 29.8in /  1008.2hPa SSO 4.7mph /  7.6km/h 8.1mph /  13km/h 67.6% 0in /  0.0mm
06:39 62.2 °F /  16.8 °C 51.1 °F /  10.6 °C 29.8in /  1008.2hPa Sur 4.3mph /  6.9km/h 8.5mph /  13.7km/h 66.9% 0in /  0.0mm
06:44 62.4 °F /  16.9 °C 51.4 °F /  10.8 °C 29.8in /  1008.1hPa Sur 5mph /  8.1km/h 9mph /  14.5km/h 67% 0in /  0.0mm
06:49 62.8 °F /  17.1 °C 51.6 °F /  10.9 °C 29.8in /  1008.1hPa SSE 5.2mph /  8.4km/h 9mph /  14.5km/h 67% 0in /  0.0mm
06:54 62.8 °F /  17.1 °C 51.6 °F /  10.9 °C 29.8in /  1008.2hPa SSO 5.3mph /  8.6km/h 9.2mph /  14.8km/h 66.7% 0in /  0.0mm
06:59 62.8 °F /  17.1 °C 51.1 °F /  10.6 °C 29.8in /  1008.2hPa Sur 5.4mph /  8.7km/h 9.7mph /  15.6km/h 65.8% 0in /  0.0mm
07:04 62.8 °F /  17.1 °C 51.3 °F /  10.7 °C 29.8in /  1008.2hPa SSO 5.4mph /  8.7km/h 10mph /  16.1km/h 66% 0in /  0.0mm
07:09 62.8 °F /  17.1 °C 51.3 °F /  10.7 °C 29.8in /  1008.3hPa Sur 5.4mph /  8.7km/h 12.7mph /  20.4km/h 66.2% 0in /  0.0mm
07:14 62.4 °F /  16.9 °C 51.3 °F /  10.7 °C 29.8in /  1008.3hPa SSO 6mph /  9.7km/h 13mph /  20.9km/h 66.9% 0in /  0.0mm
07:19 62.2 °F /  16.8 °C 50.9 °F /  10.5 °C 29.8in /  1008.3hPa SO 6.2mph /  10km/h 12mph /  19.3km/h 66.7% 0.01in /  0.3mm
07:24 62.1 °F /  16.7 °C 50.7 °F /  10.4 °C 29.8in /  1008.6hPa SSO 6.3mph /  10.2km/h 12.7mph /  20.4km/h 66.1% 0.01in /  0.3mm
07:29 62.2 °F /  16.8 °C 50 °F /  10 °C 29.8in /  1008.6hPa SSO 6.4mph /  10.3km/h 13mph /  20.9km/h 64.3% 0.01in /  0.3mm
07:34 62.4 °F /  16.9 °C 50.2 °F /  10.1 °C 29.8in /  1008.6hPa SSO 6.8mph /  10.9km/h 13mph /  20.9km/h 64.2% 0.01in /  0.3mm
07:39 62.4 °F /  16.9 °C 50.5 °F /  10.3 °C 29.8in /  1008.6hPa SSO 6.9mph /  11.1km/h 10.4mph /  16.7km/h 65% 0.01in /  0.3mm
07:44 62.4 °F /  16.9 °C 50.5 °F /  10.3 °C 29.8in /  1008.6hPa SSO 6.3mph /  10.2km/h 10mph /  16.1km/h 65% 0.01in /  0.3mm
07:49 62.2 °F /  16.8 °C 50.4 °F /  10.2 °C 29.8in /  1008.6hPa SSO 6.2mph /  10km/h 8mph /  12.9km/h 64.9% 0.01in /  0.3mm
07:54 62.2 °F /  16.8 °C 50.4 °F /  10.2 °C 29.8in /  1008.7hPa SSO 5.4mph /  8.7km/h 7mph /  11.3km/h 65% 0.01in /  0.3mm
07:59 62.2 °F /  16.8 °C 50.2 °F /  10.1 °C 29.8in /  1008.7hPa SSO 5.2mph /  8.4km/h 7.6mph /  12.2km/h 65% 0.01in /  0.3mm
08:04 62.1 °F /  16.7 °C 49.8 °F /  9.9 °C 29.8in /  1008.7hPa Sur 4.8mph /  7.7km/h 10.4mph /  16.7km/h 64.4% 0.01in /  0.3mm
08:09 62.1 °F /  16.7 °C 49.3 °F /  9.6 °C 29.8in /  1008.9hPa SSO 4.7mph /  7.6km/h 10.7mph /  17.2km/h 63.1% 0.01in /  0.3mm
08:14 62.1 °F /  16.7 °C 48.6 °F /  9.2 °C 29.8in /  1008.9hPa SSO 6mph /  9.7km/h 11.5mph /  18.5km/h 61.5% 0.01in /  0.3mm
08:19 62.1 °F /  16.7 °C 47.8 °F /  8.8 °C 29.8in /  1008.9hPa SSO 6.4mph /  10.3km/h 13mph /  20.9km/h 59.4% 0in /  0.0mm
08:24 62.2 °F /  16.8 °C 47.8 °F /  8.8 °C 29.8in /  1008.9hPa SSO 7.3mph /  11.8km/h 13mph /  20.9km/h 59.2% 0in /  0.0mm
08:29 62.2 °F /  16.8 °C 47.7 °F /  8.7 °C 29.8in /  1008.9hPa SSO 7.6mph /  12.2km/h 15mph /  24.1km/h 58.9% 0in /  0.0mm
08:34 62.2 °F /  16.8 °C 47.3 °F /  8.5 °C 29.8in /  1008.9hPa SSO 7.6mph /  12.2km/h 15mph /  24.1km/h 58% 0in /  0.0mm
08:39 62.4 °F /  16.9 °C 47.1 °F /  8.4 °C 29.8in /  1009.1hPa SO 7.6mph /  12.2km/h 13mph /  20.9km/h 57.2% 0in /  0.0mm
08:44 62.8 °F /  17.1 °C 46.9 °F /  8.3 °C 29.8in /  1009.1hPa SO 6.6mph /  10.7km/h 10.7mph /  17.2km/h 56.6% 0in /  0.0mm
08:49 63 °F /  17.2 °C 46.8 °F /  8.2 °C 29.8in /  1009.1hPa OSO 6.4mph /  10.3km/h 11.2mph /  18km/h 55.7% 0in /  0.0mm
08:54 63.1 °F /  17.3 °C 46 °F /  7.8 °C 29.8in /  1009.6hPa OSO 5.6mph /  9km/h 12mph /  19.3km/h 53.8% 0in /  0.0mm
08:59 63.5 °F /  17.5 °C 45.3 °F /  7.4 °C 29.8in /  1009.6hPa OSO 5.4mph /  8.7km/h 14mph /  22.5km/h 51.6% 0in /  0.0mm
09:04 63.9 °F /  17.7 °C 44.8 °F /  7.1 °C 29.8in /  1009.6hPa Oeste 6.6mph /  10.7km/h 17.5mph /  28.2km/h 49.9% 0in /  0.0mm
09:09 64 °F /  17.8 °C 44.4 °F /  6.9 °C 29.8in /  1009.9hPa Oeste 6.9mph /  11.1km/h 17.5mph /  28.2km/h 49% 0in /  0.0mm
09:14 64 °F /  17.8 °C 44.4 °F /  6.9 °C 29.8in /  1009.9hPa Oeste 8.2mph /  13.2km/h 19mph /  30.6km/h 48.7% 0in /  0.0mm
09:19 64.2 °F /  17.9 °C 44.1 °F /  6.7 °C 29.8in /  1009.9hPa Oeste 8.5mph /  13.7km/h 19mph /  30.6km/h 48% 0in /  0.0mm
09:24 64.2 °F /  17.9 °C 43.9 °F /  6.6 °C 29.8in /  1010.1hPa Oeste 8.5mph /  13.7km/h 17.3mph /  27.8km/h 47.5% 0in /  0.0mm
09:29 64.4 °F /  18 °C 43.7 °F /  6.5 °C 29.8in /  1010.1hPa Oeste 8.5mph /  13.7km/h 20.1mph /  32.3km/h 46.8% 0in /  0.0mm
09:34 64.6 °F /  18.1 °C 43.3 °F /  6.3 °C 29.8in /  1010.1hPa Oeste 11.1mph /  17.9km/h 23.5mph /  37.8km/h 45.9% 0in /  0.0mm
09:39 64.9 °F /  18.3 °C 42.8 °F /  6 °C 29.8in /  1010.1hPa ONO 11.8mph /  19km/h 23.5mph /  37.8km/h 44.6% 0in /  0.0mm
09:44 64.9 °F /  18.3 °C 42.6 °F /  5.9 °C 29.8in /  1010.1hPa Oeste 12.2mph /  19.6km/h 23mph /  37km/h 44% 0in /  0.0mm
09:49 65.1 °F /  18.4 °C 42.3 °F /  5.7 °C 29.8in /  1010.1hPa Oeste 12.3mph /  19.8km/h 23mph /  37km/h 43.3% 0in /  0.0mm
09:54 65.1 °F /  18.4 °C 41.7 °F /  5.4 °C 29.8in /  1010.2hPa Oeste 13.4mph /  21.6km/h 25.3mph /  40.7km/h 42.5% 0in /  0.0mm
09:59 65.1 °F /  18.4 °C 41.9 °F /  5.5 °C 29.8in /  1010.2hPa Oeste 13.7mph /  22.1km/h 25.3mph /  40.7km/h 42.6% 0in /  0.0mm
10:04 65.5 °F /  18.6 °C 42.4 °F /  5.8 °C 29.8in /  1010.2hPa Oeste 14.4mph /  23.1km/h 25mph /  40.2km/h 43.1% 0in /  0.0mm
10:09 65.7 °F /  18.7 °C 42.4 °F /  5.8 °C 29.8in /  1010.2hPa Oeste 14.5mph /  23.3km/h 20.7mph /  33.3km/h 42.9% 0in /  0.0mm
10:14 65.7 °F /  18.7 °C 42.1 °F /  5.6 °C 29.8in /  1010.2hPa Oeste 12.1mph /  19.4km/h 23.7mph /  38.1km/h 42.3% 0in /  0.0mm
10:19 65.7 °F /  18.7 °C 41.9 °F /  5.5 °C 29.8in /  1010.2hPa Oeste 11.4mph /  18.4km/h 24.2mph /  38.9km/h 42% 0in /  0.0mm
10:24 65.8 °F /  18.8 °C 41.9 °F /  5.5 °C 29.8in /  1010.2hPa Oeste 11.7mph /  18.9km/h 25.3mph /  40.7km/h 41.6% 0in /  0.0mm
10:29 65.7 °F /  18.7 °C 41.4 °F /  5.2 °C 29.8in /  1010.2hPa Oeste 11.8mph /  19km/h 27.6mph /  44.4km/h 41% 0in /  0.0mm
10:34 65.7 °F /  18.7 °C 41.4 °F /  5.2 °C 29.8in /  1010.2hPa Oeste 14.5mph /  23.3km/h 28mph /  45.1km/h 41% 0in /  0.0mm
10:39 65.7 °F /  18.7 °C 41.2 °F /  5.1 °C 29.8in /  1010.4hPa Oeste 15.2mph /  24.5km/h 24.6mph /  39.6km/h 40.8% 0in /  0.0mm
10:44 65.7 °F /  18.7 °C 40.8 °F /  4.9 °C 29.8in /  1010.4hPa Oeste 14.8mph /  23.8km/h 25.3mph /  40.7km/h 40.2% 0in /  0.0mm
10:49 65.7 °F /  18.7 °C 41 °F /  5 °C 29.8in /  1010.4hPa Oeste 14.7mph /  23.7km/h 25mph /  40.2km/h 40.4% 0in /  0.0mm
10:54 66 °F /  18.9 °C 40.6 °F /  4.8 °C 29.8in /  1010.4hPa ONO 13mph /  20.9km/h 21.5mph /  34.6km/h 39.5% 0in /  0.0mm
10:59 66 °F /  18.9 °C 40.1 °F /  4.5 °C 29.8in /  1010.4hPa Oeste 12.5mph /  20.1km/h 22mph /  35.4km/h 38.8% 0in /  0.0mm
11:04 66 °F /  18.9 °C 40.3 °F /  4.6 °C 29.8in /  1010.4hPa Oeste 12.4mph /  19.9km/h 21mph /  33.8km/h 39% 0in /  0.0mm
11:09 66.2 °F /  19 °C 40.5 °F /  4.7 °C 29.8in /  1010.5hPa Oeste 12.3mph /  19.8km/h 20.8mph /  33.5km/h 38.9% 0in /  0.0mm
11:14 66.2 °F /  19 °C 40.6 °F /  4.8 °C 29.8in /  1010.5hPa Oeste 11.6mph /  18.7km/h 21mph /  33.8km/h 39.2% 0in /  0.0mm
11:19 66.2 °F /  19 °C 40.5 °F /  4.7 °C 29.8in /  1010.5hPa OSO 11.4mph /  18.4km/h 23mph /  37km/h 38.9% 0in /  0.0mm
11:24 66.4 °F /  19.1 °C 39.7 °F /  4.3 °C 29.8in /  1010.5hPa Oeste 12.7mph /  20.4km/h 23mph /  37km/h 37.7% 0in /  0.0mm
11:29 66.6 °F /  19.2 °C 39.6 °F /  4.2 °C 29.8in /  1010.5hPa Oeste 13mph /  20.9km/h 22mph /  35.4km/h 37.1% 0in /  0.0mm
11:34 66.7 °F /  19.3 °C 39.6 °F /  4.2 °C 29.8in /  1010.5hPa Oeste 12.1mph /  19.4km/h 22mph /  35.4km/h 37% 0in /  0.0mm
11:39 66.7 °F /  19.3 °C 39 °F /  3.9 °C 29.8in /  1010.5hPa Oeste 11.8mph /  19km/h 24.6mph /  39.6km/h 36.1% 0in /  0.0mm
11:44 66.6 °F /  19.2 °C 38.8 °F /  3.8 °C 29.8in /  1010.4hPa Oeste 12.7mph /  20.5km/h 29.7mph /  47.8km/h 36% 0in /  0.0mm
11:49 66.4 °F /  19.1 °C 39 °F /  3.9 °C 29.8in /  1010.4hPa Oeste 13mph /  20.9km/h 30mph /  48.3km/h 36.6% 0in /  0.0mm
11:54 66.6 °F /  19.2 °C 38.8 °F /  3.8 °C 29.8in /  1010.4hPa Oeste 14.7mph /  23.7km/h 28.8mph /  46.3km/h 36.2% 0in /  0.0mm
11:59 66.4 °F /  19.1 °C 39 °F /  3.9 °C 29.8in /  1010.4hPa Oeste 15.2mph /  24.5km/h 29mph /  46.7km/h 36.6% 0in /  0.0mm
12:04 66.6 °F /  19.2 °C 39.4 °F /  4.1 °C 29.8in /  1010.4hPa Oeste 15.2mph /  24.5km/h 27.6mph /  44.4km/h 37% 0in /  0.0mm
12:09 66.7 °F /  19.3 °C 39.2 °F /  4 °C 29.8in /  1010.4hPa Oeste 15.2mph /  24.5km/h 28mph /  45.1km/h 36.4% 0in /  0.0mm
12:14 66.7 °F /  19.3 °C 39.6 °F /  4.2 °C 29.8in /  1010.3hPa Oeste 13.9mph /  22.3km/h 26mph /  41.8km/h 37% 0in /  0.0mm
12:19 66.9 °F /  19.4 °C 39.7 °F /  4.3 °C 29.8in /  1010.3hPa Oeste 13.5mph /  21.7km/h 25.3mph /  40.7km/h 37% 0in /  0.0mm
12:24 66.9 °F /  19.4 °C 39.6 °F /  4.2 °C 29.8in /  1010.3hPa ONO 12.2mph /  19.6km/h 25mph /  40.2km/h 36.8% 0in /  0.0mm
12:29 66.9 °F /  19.4 °C 39.2 °F /  4 °C 29.8in /  1010.2hPa OSO 11.8mph /  19km/h 25.3mph /  40.7km/h 36% 0in /  0.0mm
12:34 67.1 °F /  19.5 °C 39.2 °F /  4 °C 29.8in /  1010.2hPa Oeste 12.7mph /  20.5km/h 25.3mph /  40.7km/h 36% 0in /  0.0mm
12:39 67.1 °F /  19.5 °C 39.7 °F /  4.3 °C 29.8in /  1010.2hPa OSO 13mph /  20.9km/h 25mph /  40.2km/h 36.8% 0in /  0.0mm
12:44 67.5 °F /  19.7 °C 39.7 °F /  4.3 °C 29.8in /  1009.9hPa Oeste 11.7mph /  18.9km/h 25.3mph /  40.7km/h 36.3% 0in /  0.0mm
12:49 67.1 °F /  19.5 °C 39.2 °F /  4 °C 29.8in /  1009.9hPa Oeste 11.4mph /  18.4km/h 25.3mph /  40.7km/h 36% 0in /  0.0mm
12:54 67.5 °F /  19.7 °C 39.6 °F /  4.2 °C 29.8in /  1009.9hPa ONO 14.5mph /  23.3km/h 26.8mph /  43.1km/h 36% 0in /  0.0mm
12:59 67.5 °F /  19.7 °C 39.6 °F /  4.2 °C 29.8in /  1009.6hPa ONO 15.2mph /  24.5km/h 27.3mph /  43.9km/h 36% 0in /  0.0mm
13:04 67.5 °F /  19.7 °C 39.6 °F /  4.2 °C 29.8in /  1009.6hPa ONO 13.8mph /  22.2km/h 27mph /  43.5km/h 36% 0in /  0.0mm
13:09 67.6 °F /  19.8 °C 39.7 °F /  4.3 °C 29.8in /  1009.6hPa ONO 13.5mph /  21.7km/h 25mph /  40.2km/h 36% 0in /  0.0mm
13:14 67.8 °F /  19.9 °C 39.4 °F /  4.1 °C 29.8in /  1009.4hPa ONO 12.6mph /  20.2km/h 24.2mph /  38.9km/h 35.1% 0in /  0.0mm
13:19 67.8 °F /  19.9 °C 39.2 °F /  4 °C 29.8in /  1009.4hPa Oeste 12.3mph /  19.8km/h 24mph /  38.6km/h 35% 0in /  0.0mm
13:24 67.6 °F /  19.8 °C 39.6 °F /  4.2 °C 29.8in /  1009.4hPa Oeste 13.4mph /  21.6km/h 21mph /  33.8km/h 35.9% 0in /  0.0mm
13:29 67.8 °F /  19.9 °C 39 °F /  3.9 °C 29.8in /  1009.4hPa Oeste 13.7mph /  22.1km/h 25.3mph /  40.7km/h 34.9% 0in /  0.0mm
13:34 67.6 °F /  19.8 °C 39 °F /  3.9 °C 29.8in /  1009.4hPa Oeste 13.5mph /  21.8km/h 25mph /  40.2km/h 34.9% 0in /  0.0mm
13:39 67.8 °F /  19.9 °C 39.2 °F /  4 °C 29.8in /  1009.4hPa Oeste 13.5mph /  21.7km/h 24mph /  38.6km/h 35% 0in /  0.0mm
13:44 68 °F /  20 °C 39.4 °F /  4.1 °C 29.8in /  1009.3hPa Oeste 13.1mph /  21.1km/h 23mph /  37km/h 35.1% 0in /  0.0mm
13:49 68.2 °F /  20.1 °C 39.2 °F /  4 °C 29.8in /  1009.3hPa Oeste 13mph /  20.9km/h 25.6mph /  41.2km/h 34.6% 0in /  0.0mm
13:54 68.2 °F /  20.1 °C 38.5 °F /  3.6 °C 29.8in /  1009.3hPa Oeste 12.6mph /  20.3km/h 26mph /  41.8km/h 33.6% 0in /  0.0mm
13:59 68.2 °F /  20.1 °C 38.5 °F /  3.6 °C 29.8in /  1009.2hPa Oeste 12.5mph /  20.1km/h 26.8mph /  43.1km/h 33.7% 0in /  0.0mm
14:04 68.4 °F /  20.2 °C 38.7 °F /  3.7 °C 29.8in /  1009.2hPa ONO 12.9mph /  20.8km/h 27mph /  43.5km/h 33.7% 0in /  0.0mm
14:09 68.4 °F /  20.2 °C 38.5 °F /  3.6 °C 29.8in /  1009.2hPa ONO 13mph /  20.9km/h 24.2mph /  38.9km/h 33.4% 0in /  0.0mm
14:14 68.2 °F /  20.1 °C 38.1 °F /  3.4 °C 29.8in /  1009.2hPa Oeste 12.6mph /  20.3km/h 25.3mph /  40.7km/h 33.1% 0in /  0.0mm
14:19 67.8 °F /  19.9 °C 38.1 °F /  3.4 °C 29.8in /  1009.2hPa Oeste 12.5mph /  20.1km/h 25mph /  40.2km/h 33.5% 0in /  0.0mm
14:24 68.2 °F /  20.1 °C 38.5 °F /  3.6 °C 29.8in /  1009.2hPa Oeste 13.3mph /  21.4km/h 23mph /  37km/h 33.7% 0in /  0.0mm
14:29 68.4 °F /  20.2 °C 38.7 °F /  3.7 °C 29.8in /  1009.2hPa Oeste 13.5mph /  21.7km/h 24.6mph /  39.6km/h 33.6% 0in /  0.0mm
14:34 68.2 °F /  20.1 °C 38.3 °F /  3.5 °C 29.8in /  1009.2hPa ONO 11.7mph /  18.8km/h 25mph /  40.2km/h 33.5% 0in /  0.0mm
14:39 68.2 °F /  20.1 °C 38.7 °F /  3.7 °C 29.8in /  1009.2hPa Oeste 11.2mph /  18km/h 24mph /  38.6km/h 34% 0in /  0.0mm
14:44 68.2 °F /  20.1 °C 38.7 °F /  3.7 °C 29.8in /  1009.1hPa Oeste 12.6mph /  20.3km/h 26.5mph /  42.6km/h 34% 0in /  0.0mm
14:49 68.4 °F /  20.2 °C 38.5 °F /  3.6 °C 29.8in /  1009.1hPa Oeste 13mph /  20.9km/h 26mph /  41.8km/h 33.7% 0in /  0.0mm
14:54 68.5 °F /  20.3 °C 38.3 °F /  3.5 °C 29.8in /  1009.1hPa OSO 13mph /  20.9km/h 25.3mph /  40.7km/h 33.2% 0in /  0.0mm
14:59 68.7 °F /  20.4 °C 38.3 °F /  3.5 °C 29.8in /  1009.1hPa Oeste 13mph /  20.9km/h 25.3mph /  40.7km/h 33% 0in /  0.0mm
15:04 68.5 °F /  20.3 °C 38.3 °F /  3.5 °C 29.8in /  1009.1hPa Oeste 12.4mph /  20km/h 26mph /  41.8km/h 33% 0in /  0.0mm
15:09 68.5 °F /  20.3 °C 38.1 °F /  3.4 °C 29.8in /  1009.3hPa Oeste 12.3mph /  19.8km/h 28.8mph /  46.3km/h 32.9% 0in /  0.0mm
15:14 68.4 °F /  20.2 °C 38.1 °F /  3.4 °C 29.8in /  1009.3hPa OSO 12.3mph /  19.8km/h 29mph /  46.7km/h 33% 0in /  0.0mm
15:19 68.7 °F /  20.4 °C 38.5 °F /  3.6 °C 29.8in /  1009.3hPa Oeste 12.3mph /  19.8km/h 21mph /  33.8km/h 33% 0in /  0.0mm
15:24 69.1 °F /  20.6 °C 38.7 °F /  3.7 °C 29.8in /  1009.3hPa Oeste 11.1mph /  17.8km/h 21.9mph /  35.2km/h 33% 0in /  0.0mm
15:29 68.7 °F /  20.4 °C 38.5 °F /  3.6 °C 29.8in /  1009.3hPa OSO 10.7mph /  17.2km/h 24.2mph /  38.9km/h 33% 0in /  0.0mm
15:34 68.7 °F /  20.4 °C 38.8 °F /  3.8 °C 29.8in /  1009.3hPa OSO 12.5mph /  20.1km/h 24.2mph /  38.9km/h 33.4% 0in /  0.0mm
15:39 68.5 °F /  20.3 °C 38.8 °F /  3.8 °C 29.8in /  1009.4hPa OSO 13mph /  20.9km/h 26mph /  41.8km/h 33.6% 0in /  0.0mm
15:44 68.5 °F /  20.3 °C 39 °F /  3.9 °C 29.8in /  1009.4hPa OSO 13mph /  20.9km/h 26mph /  41.8km/h 34% 0in /  0.0mm
15:49 68.5 °F /  20.3 °C 39 °F /  3.9 °C 29.8in /  1009.4hPa OSO 13mph /  20.9km/h 23mph /  37km/h 34% 0in /  0.0mm
15:54 68.7 °F /  20.4 °C 39.2 °F /  4 °C 29.8in /  1009.5hPa Oeste 12.1mph /  19.4km/h 21.9mph /  35.2km/h 34% 0in /  0.0mm
15:59 68.7 °F /  20.4 °C 39.2 °F /  4 °C 29.8in /  1009.5hPa OSO 11.8mph /  19km/h 25.3mph /  40.7km/h 34% 0in /  0.0mm
16:04 68.7 °F /  20.4 °C 39.2 °F /  4 °C 29.8in /  1009.5hPa OSO 12.4mph /  19.9km/h 25mph /  40.2km/h 34.1% 0in /  0.0mm
16:09 68.7 °F /  20.4 °C 39.2 °F /  4 °C 29.8in /  1009.7hPa Oeste 12.5mph /  20.1km/h 26.5mph /  42.6km/h 34% 0in /  0.0mm
16:14 68.5 °F /  20.3 °C 39 °F /  3.9 °C 29.8in /  1009.7hPa Oeste 13.5mph /  21.7km/h 27.6mph /  44.4km/h 34% 0in /  0.0mm
16:19 68.4 °F /  20.2 °C 38.8 °F /  3.8 °C 29.8in /  1009.7hPa Oeste 13.7mph /  22.1km/h 28mph /  45.1km/h 34% 0in /  0.0mm
16:24 68.4 °F /  20.2 °C 39.4 °F /  4.1 °C 29.8in /  1009.8hPa OSO 14.4mph /  23.1km/h 26mph /  41.8km/h 34.6% 0in /  0.0mm
16:29 68.5 °F /  20.3 °C 39.7 °F /  4.3 °C 29.8in /  1009.8hPa Oeste 14.5mph /  23.3km/h 24.2mph /  38.9km/h 35% 0in /  0.0mm
16:34 68.5 °F /  20.3 °C 39.7 °F /  4.3 °C 29.8in /  1009.8hPa OSO 12.1mph /  19.5km/h 27.6mph /  44.4km/h 35% 0in /  0.0mm
16:39 68.4 °F /  20.2 °C 39.6 °F /  4.2 °C 29.8in /  1009.8hPa OSO 11.4mph /  18.4km/h 28mph /  45.1km/h 35% 0in /  0.0mm
16:44 68.2 °F /  20.1 °C 39.6 °F /  4.2 °C 29.8in /  1009.8hPa Oeste 11.4mph /  18.4km/h 21mph /  33.8km/h 35% 0in /  0.0mm
16:49 68 °F /  20 °C 39.4 °F /  4.1 °C 29.8in /  1009.8hPa Oeste 11.4mph /  18.4km/h 20mph /  32.2km/h 35.1% 0in /  0.0mm
16:54 68 °F /  20 °C 39.6 °F /  4.2 °C 29.8in /  1009.8hPa OSO 11.4mph /  18.4km/h 19mph /  30.6km/h 35.3% 0in /  0.0mm
16:59 68.2 °F /  20.1 °C 39.6 °F /  4.2 °C 29.8in /  1009.7hPa OSO 11.4mph /  18.4km/h 20.8mph /  33.5km/h 35% 0in /  0.0mm
17:04 68.2 °F /  20.1 °C 39.6 °F /  4.2 °C 29.8in /  1009.7hPa OSO 11.2mph /  18.1km/h 21.9mph /  35.2km/h 35% 0in /  0.0mm
17:09 68 °F /  20 °C 39.7 °F /  4.3 °C 29.8in /  1009.7hPa OSO 11.2mph /  18km/h 22mph /  35.4km/h 35.5% 0in /  0.0mm
17:14 67.8 °F /  19.9 °C 39.9 °F /  4.4 °C 29.8in /  1009.6hPa Oeste 9.6mph /  15.5km/h 14mph /  22.5km/h 36% 0in /  0.0mm
17:19 67.6 °F /  19.8 °C 39.7 °F /  4.3 °C 29.8in /  1009.6hPa OSO 9.2mph /  14.8km/h 18.4mph /  29.6km/h 36.1% 0in /  0.0mm
17:24 67.6 °F /  19.8 °C 39.7 °F /  4.3 °C 29.8in /  1009.8hPa OSO 7.8mph /  12.5km/h 20.1mph /  32.3km/h 36% 0in /  0.0mm
17:29 67.5 °F /  19.7 °C 40.3 °F /  4.6 °C 29.8in /  1009.8hPa Oeste 7.4mph /  11.9km/h 21.5mph /  34.6km/h 36.9% 0in /  0.0mm
17:34 67.5 °F /  19.7 °C 40.3 °F /  4.6 °C 29.8in /  1009.8hPa Oeste 10mph /  16.1km/h 22mph /  35.4km/h 37% 0in /  0.0mm
17:39 67.3 °F /  19.6 °C 40.3 °F /  4.6 °C 29.8in /  1010.2hPa Oeste 10.7mph /  17.2km/h 17mph /  27.4km/h 37.3% 0in /  0.0mm
17:44 67.3 °F /  19.6 °C 40.8 °F /  4.9 °C 29.8in /  1010.2hPa OSO 8mph /  12.9km/h 16.1mph /  25.9km/h 38% 0in /  0.0mm
17:49 66.9 °F /  19.4 °C 40.5 °F /  4.7 °C 29.8in /  1010.2hPa Oeste 7.4mph /  11.9km/h 16.3mph /  26.2km/h 38% 0in /  0.0mm
17:54 66.9 °F /  19.4 °C 40.5 °F /  4.7 °C 29.8in /  1010.2hPa OSO 8.4mph /  13.6km/h 16.8mph /  27km/h 38% 0in /  0.0mm
17:59 66.7 °F /  19.3 °C 41 °F /  5 °C 29.8in /  1010.2hPa Oeste 8.7mph /  14km/h 18.4mph /  29.6km/h 39% 0in /  0.0mm
18:04 66.6 °F /  19.2 °C 40.8 °F /  4.9 °C 29.8in /  1010.2hPa OSO 8.7mph /  14km/h 18mph /  29km/h 39% 0in /  0.0mm
18:09 66.4 °F /  19.1 °C 40.6 °F /  4.8 °C 29.8in /  1010.3hPa OSO 8.7mph /  14km/h 23mph /  37km/h 39% 0in /  0.0mm
18:14 66.2 °F /  19 °C 40.6 °F /  4.8 °C 29.8in /  1010.3hPa OSO 8.7mph /  14km/h 23mph /  37km/h 39.3% 0in /  0.0mm
18:19 66 °F /  18.9 °C 41 °F /  5 °C 29.8in /  1010.3hPa OSO 8.7mph /  14km/h 15.2mph /  24.5km/h 40% 0in /  0.0mm
18:24 65.8 °F /  18.8 °C 40.8 °F /  4.9 °C 29.8in /  1010.4hPa OSO 7.8mph /  12.6km/h 15mph /  24.1km/h 40.2% 0in /  0.0mm
18:29 65.7 °F /  18.7 °C 41.4 °F /  5.2 °C 29.8in /  1010.4hPa OSO 7.6mph /  12.2km/h 13.8mph /  22.2km/h 41% 0in /  0.0mm
18:34 65.7 °F /  18.7 °C 41.4 °F /  5.2 °C 29.8in /  1010.4hPa SO 7mph /  11.3km/h 14mph /  22.5km/h 41% 0in /  0.0mm
18:39 65.7 °F /  18.7 °C 41.4 °F /  5.2 °C 29.8in /  1010.7hPa SO 6.9mph /  11.1km/h 12.7mph /  20.4km/h 41% 0in /  0.0mm
18:44 65.5 °F /  18.6 °C 41.2 °F /  5.1 °C 29.8in /  1010.7hPa SO 6.3mph /  10.2km/h 13mph /  20.9km/h 41% 0in /  0.0mm
18:49 65.5 °F /  18.6 °C 41.2 °F /  5.1 °C 29.8in /  1010.7hPa SO 6.2mph /  10km/h 9.2mph /  14.8km/h 41.2% 0in /  0.0mm
18:54 65.3 °F /  18.5 °C 41.5 °F /  5.3 °C 29.9in /  1011.0hPa SO 5.4mph /  8.7km/h 11.5mph /  18.5km/h 42% 0in /  0.0mm
18:59 64.9 °F /  18.3 °C 41.4 °F /  5.2 °C 29.9in /  1011.0hPa SO 5.2mph /  8.4km/h 13.8mph /  22.2km/h 42% 0in /  0.0mm
19:04 64.9 °F /  18.3 °C 41.4 °F /  5.2 °C 29.9in /  1011.0hPa SO 6.2mph /  10km/h 15.2mph /  24.5km/h 42% 0in /  0.0mm
19:09 64.9 °F /  18.3 °C 41.4 °F /  5.2 °C 29.9in /  1011.2hPa SO 6.4mph /  10.3km/h 15mph /  24.1km/h 42% 0in /  0.0mm
19:14 64.9 °F /  18.3 °C 41.4 °F /  5.2 °C 29.9in /  1011.2hPa OSO 8.1mph /  13km/h 16.1mph /  25.9km/h 42% 0in /  0.0mm
19:19 64.9 °F /  18.3 °C 41.4 °F /  5.2 °C 29.9in /  1011.2hPa OSO 8.5mph /  13.7km/h 16.3mph /  26.2km/h 42% 0in /  0.0mm
19:24 64.8 °F /  18.2 °C 41.2 °F /  5.1 °C 29.9in /  1011.4hPa OSO 8.6mph /  13.9km/h 16.1mph /  25.9km/h 42% 0in /  0.0mm
19:29 64.6 °F /  18.1 °C 41.5 °F /  5.3 °C 29.9in /  1011.4hPa OSO 8.7mph /  14km/h 16mph /  25.7km/h 42.8% 0in /  0.0mm
19:34 64.4 °F /  18 °C 41.4 °F /  5.2 °C 29.9in /  1011.4hPa OSO 6.9mph /  11.1km/h 12mph /  19.3km/h 43% 0in /  0.0mm
19:39 64.2 °F /  17.9 °C 41.2 °F /  5.1 °C 29.9in /  1011.4hPa OSO 6.4mph /  10.3km/h 11mph /  17.7km/h 43% 0in /  0.0mm
19:44 64.2 °F /  17.9 °C 41.2 °F /  5.1 °C 29.9in /  1011.4hPa OSO 4.7mph /  7.6km/h 8mph /  12.9km/h 43% 0in /  0.0mm
19:49 64 °F /  17.8 °C 41.2 °F /  5.1 °C 29.9in /  1011.4hPa SO 4.3mph /  6.9km/h 9.7mph /  15.6km/h 43% 0in /  0.0mm
19:54 64 °F /  17.8 °C 41.5 °F /  5.3 °C 29.9in /  1011.5hPa SO 5mph /  8.1km/h 10mph /  16.1km/h 43.7% 0in /  0.0mm
19:59 63.9 °F /  17.7 °C 41.5 °F /  5.3 °C 29.9in /  1011.5hPa SO 5.2mph /  8.4km/h 9.2mph /  14.8km/h 44% 0in /  0.0mm
20:04 63.9 °F /  17.7 °C 41.4 °F /  5.2 °C 29.9in /  1011.5hPa SO 5.2mph /  8.4km/h 9mph /  14.5km/h 44% 0in /  0.0mm
20:09 63.7 °F /  17.6 °C 41.4 °F /  5.2 °C 29.9in /  1011.7hPa SO 5.2mph /  8.4km/h 8mph /  12.9km/h 44% 0in /  0.0mm
20:14 63.7 °F /  17.6 °C 41.4 °F /  5.2 °C 29.9in /  1011.7hPa SO 4.5mph /  7.2km/h 7.4mph /  11.9km/h 44% 0in /  0.0mm
20:19 63.5 °F /  17.5 °C 41.2 °F /  5.1 °C 29.9in /  1011.7hPa SO 4.3mph /  6.9km/h 8.1mph /  13km/h 44% 0in /  0.0mm
20:24 63.5 °F /  17.5 °C 41.2 °F /  5.1 °C 29.9in /  1011.8hPa SO 5mph /  8.1km/h 10.4mph /  16.7km/h 44% 0in /  0.0mm
20:29 63.3 °F /  17.4 °C 41 °F /  5 °C 29.9in /  1011.8hPa SO 5.2mph /  8.4km/h 10.4mph /  16.7km/h 44% 0in /  0.0mm
20:34 63.3 °F /  17.4 °C 41 °F /  5 °C 29.9in /  1011.8hPa SO 6mph /  9.6km/h 10mph /  16.1km/h 44% 0in /  0.0mm
20:39 63.3 °F /  17.4 °C 41 °F /  5 °C 29.9in /  1011.8hPa SO 6.2mph /  10km/h 9.7mph /  15.6km/h 44% 0in /  0.0mm
20:44 63.3 °F /  17.4 °C 41 °F /  5 °C 29.9in /  1011.8hPa SO 6.2mph /  10km/h 10mph /  16.1km/h 44% 0in /  0.0mm
20:49 63.3 °F /  17.4 °C 41 °F /  5 °C 29.9in /  1011.8hPa SO 6.2mph /  10km/h 10.4mph /  16.7km/h 44% 0in /  0.0mm
20:54 63.3 °F /  17.4 °C 40.8 °F /  4.9 °C 29.9in /  1011.8hPa SO 6.2mph /  10km/h 10.4mph /  16.7km/h 43.8% 0in /  0.0mm
20:59 63.3 °F /  17.4 °C 40.5 °F /  4.7 °C 29.9in /  1011.8hPa SO 6.2mph /  10km/h 13mph /  20.9km/h 43% 0in /  0.0mm
21:04 63.7 °F /  17.6 °C 40.8 °F /  4.9 °C 29.9in /  1011.8hPa SO 6.8mph /  10.9km/h 13mph /  20.9km/h 43% 0in /  0.0mm
21:09 63.7 °F /  17.6 °C 40.8 °F /  4.9 °C 29.9in /  1011.9hPa SO 6.9mph /  11.1km/h 11mph /  17.7km/h 43% 0in /  0.0mm
21:14 63.5 °F /  17.5 °C 40.6 °F /  4.8 °C 29.9in /  1011.9hPa SO 6.3mph /  10.2km/h 11.2mph /  18km/h 43% 0in /  0.0mm
21:19 63.7 °F /  17.6 °C 40.6 °F /  4.8 °C 29.9in /  1011.9hPa SO 6.2mph /  10km/h 12mph /  19.3km/h 43% 0in /  0.0mm
21:24 63.5 °F /  17.5 °C 40.6 °F /  4.8 °C 29.9in /  1012.0hPa SO 6.3mph /  10.2km/h 12mph /  19.3km/h 43% 0in /  0.0mm
21:29 63.5 °F /  17.5 °C 40.6 °F /  4.8 °C 29.9in /  1012.0hPa SO 6.4mph /  10.3km/h 12mph /  19.3km/h 43% 0in /  0.0mm
21:34 63.7 °F /  17.6 °C 40.6 °F /  4.8 °C 29.9in /  1012.0hPa OSO 6.3mph /  10.1km/h 10mph /  16.1km/h 43% 0in /  0.0mm
21:39 63.3 °F /  17.4 °C 40.5 °F /  4.7 °C 29.9in /  1012.3hPa OSO 6.2mph /  10km/h 10mph /  16.1km/h 43% 0in /  0.0mm
21:44 63.1 °F /  17.3 °C 40.8 °F /  4.9 °C 29.9in /  1012.3hPa OSO 5.6mph /  9km/h 9.2mph /  14.8km/h 43.7% 0in /  0.0mm
21:49 63 °F /  17.2 °C 40.8 °F /  4.9 °C 29.9in /  1012.3hPa OSO 5.4mph /  8.7km/h 9.2mph /  14.8km/h 44% 0in /  0.0mm
21:54 62.8 °F /  17.1 °C 40.6 °F /  4.8 °C 29.9in /  1012.6hPa OSO 4.8mph /  7.8km/h 9.2mph /  14.8km/h 44% 0in /  0.0mm
21:59 62.6 °F /  17 °C 40.6 °F /  4.8 °C 29.9in /  1012.6hPa OSO 4.7mph /  7.6km/h 10.4mph /  16.7km/h 44.4% 0in /  0.0mm
22:04 62.4 °F /  16.9 °C 40.8 °F /  4.9 °C 29.9in /  1012.6hPa OSO 5.9mph /  9.5km/h 10.4mph /  16.7km/h 45% 0in /  0.0mm
22:09 62.2 °F /  16.8 °C 40.6 °F /  4.8 °C 29.9in /  1012.7hPa SO 6.2mph /  10km/h 10.4mph /  16.7km/h 45% 0in /  0.0mm
22:14 62.2 °F /  16.8 °C 40.6 °F /  4.8 °C 29.9in /  1012.7hPa OSO 6mph /  9.6km/h 10.4mph /  16.7km/h 45% 0in /  0.0mm
22:19 62.2 °F /  16.8 °C 40.6 °F /  4.8 °C 29.9in /  1012.7hPa OSO 5.9mph /  9.5km/h 10.4mph /  16.7km/h 45% 0in /  0.0mm
22:24 62.2 °F /  16.8 °C 40.6 °F /  4.8 °C 29.9in /  1012.7hPa OSO 5.9mph /  9.5km/h 10.4mph /  16.7km/h 45% 0in /  0.0mm
22:29 62.1 °F /  16.7 °C 40.5 °F /  4.7 °C 29.9in /  1012.7hPa OSO 5.9mph /  9.5km/h 10.4mph /  16.7km/h 45% 0in /  0.0mm
22:34 62.1 °F /  16.7 °C 40.5 °F /  4.7 °C 29.9in /  1012.7hPa OSO 6.2mph /  9.9km/h 11.2mph /  18km/h 45% 0in /  0.0mm
22:39 62.1 °F /  16.7 °C 40.5 °F /  4.7 °C 29.9in /  1012.7hPa SO 6.2mph /  10km/h 12mph /  19.3km/h 45% 0in /  0.0mm
22:44 62.1 °F /  16.7 °C 40.5 °F /  4.7 °C 29.9in /  1012.6hPa OSO 6.2mph /  10km/h 12mph /  19.3km/h 45% 0in /  0.0mm
22:49 62.1 °F /  16.7 °C 40.5 °F /  4.7 °C 29.9in /  1012.6hPa OSO 6.2mph /  10km/h 11.8mph /  19km/h 44.9% 0in /  0.0mm
22:54 62.2 °F /  16.8 °C 39.9 °F /  4.4 °C 29.9in /  1012.8hPa SO 6.2mph /  10km/h 12mph /  19.3km/h 44.1% 0in /  0.0mm
22:59 62.2 °F /  16.8 °C 39.9 °F /  4.4 °C 29.9in /  1012.8hPa SO 6.2mph /  10km/h 10mph /  16.1km/h 44% 0in /  0.0mm
23:04 62.1 °F /  16.7 °C 40.1 °F /  4.5 °C 29.9in /  1012.8hPa OSO 5.5mph /  8.9km/h 9mph /  14.5km/h 44.3% 0in /  0.0mm
23:09 62.1 °F /  16.7 °C 40.5 °F /  4.7 °C 29.9in /  1012.8hPa ONO 5.4mph /  8.7km/h 7.6mph /  12.2km/h 44.9% 0in /  0.0mm
23:14 61.3 °F /  16.3 °C 40.8 °F /  4.9 °C 29.9in /  1012.8hPa NNO 4.3mph /  6.9km/h 9.2mph /  14.8km/h 46.8% 0in /  0.0mm
23:19 60.3 °F /  15.7 °C 41.2 °F /  5.1 °C 29.9in /  1012.8hPa NO 4mph /  6.5km/h 9mph /  14.5km/h 49.2% 0in /  0.0mm
23:24 59.5 °F /  15.3 °C 41 °F /  5 °C 29.9in /  1013.0hPa Oeste 4.2mph /  6.8km/h 7mph /  11.3km/h 50.2% 0in /  0.0mm
23:29 59.4 °F /  15.2 °C 41.4 °F /  5.2 °C 29.9in /  1013.0hPa Oeste 4.3mph /  6.9km/h 7mph /  11.3km/h 51% 0in /  0.0mm
23:34 59.4 °F /  15.2 °C 41.2 °F /  5.1 °C 29.9in /  1013.0hPa OSO 3.4mph /  5.4km/h 6mph /  9.7km/h 51% 0in /  0.0mm
23:39 59.4 °F /  15.2 °C 41.2 °F /  5.1 °C 29.9in /  1013.0hPa Sur 3.1mph /  5km/h 5mph /  8km/h 51% 0in /  0.0mm
23:44 59.5 °F /  15.3 °C 41.4 °F /  5.2 °C 29.9in /  1012.8hPa Sur 2.9mph /  4.7km/h 5mph /  8km/h 51% 0in /  0.0mm
23:49 59.5 °F /  15.3 °C 41.7 °F /  5.4 °C 29.9in /  1012.8hPa SSE 2.9mph /  4.7km/h 7.6mph /  12.2km/h 51.8% 0in /  0.0mm
23:54 58.8 °F /  14.9 °C 41.5 °F /  5.3 °C 29.9in /  1012.9hPa SSE 3.8mph /  6.1km/h 8.5mph /  13.7km/h 52.7% 0in /  0.0mm
23:59 58.1 °F /  14.5 °C 41.5 °F /  5.3 °C 29.9in /  1012.9hPa Sur 4mph /  6.5km/h 9mph /  14.5km/h 54% 0in /  0.0mm
Murcia-Puente Tocinos, España
Compliments of Weather Underground - 3 mb

La estación de MeteoMurcia.com, publica sus datos en los siguientes proyectos:

Weather Underground PWS IMURCIAP2 Meteoclimatic www.awekas.at

W3Counter
Web Analytics